Time;durP1;ratioP1;P1;durP2;ratioP2;P2;SDS_P1;SDS_P2;PMS_P1;PMS_P2;Temp;Humidity;BMP_temperature;BMP_pressure;BME280_temperature;BME280_humidity;BME280_pressure;Samples;Min_cycle;Max_cycle;Signal;HPM_P1;HPM_P2
2021/07/13 00:00:56;;;;;;;34.65;31.15;;;18.10;89.70;;;;;;5072131;28;20537;-74
2021/07/13 00:03:22;;;;;;;40.38;36.58;;;18.10;89.80;;;;;;5085176;28;20029;-75
2021/07/13 00:05:48;;;;;;;43.65;39.42;;;18.00;89.90;;;;;;5079554;28;20037;-76
2021/07/13 00:08:14;;;;;;;45.20;40.95;;;18.00;90.00;;;;;;5077942;28;20097;-74
2021/07/13 00:10:43;;;;;;;41.28;37.28;;;18.00;89.90;;;;;;5071444;28;20629;-76
2021/07/13 00:13:09;;;;;;;39.47;35.55;;;17.90;90.00;;;;;;5084579;28;20386;-78
2021/07/13 00:15:37;;;;;;;44.80;39.90;;;17.90;90.00;;;;;;5076266;28;20052;-75
2021/07/13 00:18:04;;;;;;;46.58;41.85;;;17.90;90.10;;;;;;5069091;28;20040;-75
2021/07/13 00:20:30;;;;;;;48.42;43.42;;;17.80;90.20;;;;;;5090237;28;20043;-76
2021/07/13 00:22:56;;;;;;;46.70;42.05;;;17.80;90.30;;;;;;5086730;28;20036;-75
2021/07/13 00:25:24;;;;;;;49.35;44.22;;;17.70;90.30;;;;;;5084327;28;20028;-74
2021/07/13 00:27:50;;;;;;;47.95;43.15;;;17.80;90.30;;;;;;5078445;28;20039;-74
2021/07/13 00:30:18;;;;;;;50.75;45.45;;;17.70;90.40;;;;;;5081143;28;20036;-75
2021/07/13 00:32:44;;;;;;;49.60;44.42;;;17.70;90.30;;;;;;5077654;28;20036;-75
2021/07/13 00:35:10;;;;;;;50.40;44.15;;;17.70;90.30;;;;;;5069161;28;20442;-76
2021/07/13 00:37:37;;;;;;;50.92;45.58;;;17.70;90.30;;;;;;5069596;28;20029;-74
2021/07/13 00:40:07;;;;;;;49.47;44.30;;;17.70;90.30;;;;;;5068800;28;20033;-75
2021/07/13 00:42:32;;;;;;;50.03;44.50;;;17.70;90.20;;;;;;5081828;28;20036;-74
2021/07/13 00:44:58;;;;;;;49.75;43.15;;;17.60;90.10;;;;;;5072419;28;20035;-76
2021/07/13 00:47:26;;;;;;;46.42;41.53;;;17.60;90.10;;;;;;5075686;28;20527;-76
2021/07/13 00:49:52;;;;;;;48.03;42.88;;;17.60;90.10;;;;;;5073887;28;20040;-75
2021/07/13 00:52:19;;;;;;;49.28;44.05;;;17.50;90.20;;;;;;5069518;28;20039;-75
2021/07/13 00:54:48;;;;;;;50.80;45.25;;;17.40;90.20;;;;;;5076657;28;20024;-76
2021/07/13 00:57:14;;;;;;;45.97;41.33;;;17.50;90.30;;;;;;5069958;28;20032;-75
2021/07/13 00:59:41;;;;;;;48.25;43.17;;;17.40;90.40;;;;;;5075927;28;20382;-76
2021/07/13 01:02:09;;;;;;;50.72;45.17;;;17.40;90.40;;;;;;5067932;28;20157;-75
2021/07/13 01:04:38;;;;;;;45.25;40.55;;;17.40;90.50;;;;;;5070000;28;20028;-74
2021/07/13 01:07:06;;;;;;;45.50;40.75;;;17.30;90.50;;;;;;5067976;28;20391;-77
2021/07/13 01:09:51;;;;;;;45.65;40.95;;;17.40;90.50;;;;;;5088907;28;20031;-76
2021/07/13 01:12:48;;;;;;;47.05;41.25;;;17.30;90.50;;;;;;5079674;28;20028;-75
2021/07/13 01:15:20;;;;;;;48.08;42.92;;;17.30;90.30;;;;;;5087568;28;20024;-78
2021/07/13 01:17:58;;;;;;;47.17;42.28;;;17.30;90.40;;;;;;5088564;28;20493;-75
2021/07/13 01:20:54;;;;;;;46.15;41.22;;;17.30;90.50;;;;;;5071909;28;20060;-76
2021/07/13 01:23:35;;;;;;;50.03;44.67;;;17.20;90.50;;;;;;5079852;28;20534;-75
2021/07/13 01:26:06;;;;;;;49.65;44.45;;;17.20;90.50;;;;;;5078794;28;20089;-76
2021/07/13 01:28:38;;;;;;;49.20;44.05;;;17.20;90.60;;;;;;5073630;28;20024;-76
2021/07/13 01:31:08;;;;;;;54.65;48.20;;;17.20;90.60;;;;;;5067535;28;20040;-76
2021/07/13 01:33:36;;;;;;;50.38;44.92;;;17.10;90.60;;;;;;5084959;28;20534;-76
2021/07/13 01:36:11;;;;;;;52.97;47.22;;;17.10;90.70;;;;;;5080007;28;20041;-76
2021/07/13 01:38:41;;;;;;;55.15;48.35;;;17.10;90.80;;;;;;5078172;28;20032;-76
2021/07/13 01:41:14;;;;;;;57.75;51.42;;;17.10;90.90;;;;;;5069198;28;20053;-75
2021/07/13 01:43:42;;;;;;;55.97;48.72;;;17.10;90.90;;;;;;5081062;28;20035;-74
2021/07/13 01:46:12;;;;;;;56.03;49.85;;;17.10;91.00;;;;;;5071786;28;20036;-75
2021/07/13 01:48:38;;;;;;;61.15;53.40;;;17.00;91.00;;;;;;5070743;28;20032;-74
2021/07/13 01:51:06;;;;;;;64.97;57.45;;;17.00;91.00;;;;;;5076281;28;20060;-76
2021/07/13 01:53:32;;;;;;;68.63;60.38;;;17.00;91.00;;;;;;5073112;28;20409;-76
2021/07/13 01:56:00;;;;;;;67.05;58.20;;;17.00;91.10;;;;;;5085411;28;20044;-77
2021/07/13 01:58:28;;;;;;;71.72;61.35;;;17.00;91.20;;;;;;5078391;28;20037;-76
2021/07/13 02:00:57;;;;;;;68.80;60.45;;;16.90;91.30;;;;;;5082031;28;20036;-75
2021/07/13 02:03:25;;;;;;;69.93;61.15;;;16.90;91.30;;;;;;5073537;28;20544;-75
2021/07/13 02:05:54;;;;;;;72.25;62.72;;;16.90;91.30;;;;;;5074182;28;20115;-76
2021/07/13 02:08:21;;;;;;;81.80;68.22;;;16.80;91.30;;;;;;5071827;28;20040;-76
2021/07/13 02:10:47;;;;;;;74.68;62.70;;;16.80;91.40;;;;;;5072158;28;20063;-80
2021/07/13 02:13:15;;;;;;;78.03;65.32;;;16.80;91.50;;;;;;5071894;28;20048;-77
2021/07/13 02:15:41;;;;;;;71.93;62.05;;;16.90;91.70;;;;;;5081161;28;20055;-76
2021/07/13 02:18:07;;;;;;;69.22;59.58;;;16.80;91.60;;;;;;5078825;28;20130;-74
2021/07/13 02:20:33;;;;;;;67.25;59.63;;;16.80;91.60;;;;;;5092158;28;20496;-75
2021/07/13 02:22:59;;;;;;;71.32;60.33;;;16.80;91.60;;;;;;5081746;28;20037;-74
2021/07/13 02:25:24;;;;;;;71.55;60.08;;;16.70;91.60;;;;;;5092017;28;20761;-74
2021/07/13 02:28:27;;;;;;;78.18;61.25;;;16.70;91.60;;;;;;5089500;28;20055;-76
2021/07/13 02:31:03;;;;;;;67.30;58.65;;;16.70;91.60;;;;;;5077325;28;20067;-74
2021/07/13 02:33:38;;;;;;;64.20;57.20;;;16.70;91.40;;;;;;5071550;28;20505;-74
2021/07/13 02:36:11;;;;;;;71.93;60.30;;;16.60;91.40;;;;;;5086722;28;20044;-74
2021/07/13 02:38:38;;;;;;;71.68;61.00;;;16.60;91.30;;;;;;5071707;28;20429;-76
2021/07/13 02:41:05;;;;;;;68.25;58.28;;;16.60;91.40;;;;;;5073766;28;20111;-75
2021/07/13 02:43:31;;;;;;;68.13;59.65;;;16.60;91.40;;;;;;5093053;28;20086;-76
2021/07/13 02:45:58;;;;;;;65.45;57.13;;;16.60;91.40;;;;;;5085551;28;20055;-77
2021/07/13 02:48:25;;;;;;;66.28;57.20;;;16.60;91.30;;;;;;5088247;28;20032;-75
2021/07/13 02:50:56;;;;;;;61.90;53.03;;;16.60;91.10;;;;;;5074699;28;20044;-75
2021/07/13 02:53:24;;;;;;;59.67;52.67;;;16.60;90.90;;;;;;5075057;28;20039;-75
2021/07/13 02:55:52;;;;;;;62.88;54.33;;;16.60;90.90;;;;;;5088256;28;20054;-75
2021/07/13 02:58:21;;;;;;;61.85;54.55;;;16.50;90.90;;;;;;5086052;28;20045;-75
2021/07/13 03:00:48;;;;;;;61.45;53.97;;;16.50;90.90;;;;;;5070864;28;20032;-76
2021/07/13 03:03:15;;;;;;;63.40;55.65;;;16.50;91.00;;;;;;5086831;28;20039;-75
2021/07/13 03:05:42;;;;;;;62.70;54.40;;;16.50;90.90;;;;;;5080941;28;20035;-76
2021/07/13 03:08:08;;;;;;;62.38;53.15;;;16.50;90.90;;;;;;5089645;28;20106;-76
2021/07/13 03:10:34;;;;;;;61.97;54.92;;;16.50;90.80;;;;;;5083561;28;20020;-76
2021/07/13 03:13:00;;;;;;;65.95;56.30;;;16.40;90.80;;;;;;5072270;28;20546;-76
2021/07/13 03:15:32;;;;;;;67.90;55.30;;;16.40;90.70;;;;;;5071696;28;20029;-75
2021/07/13 03:17:58;;;;;;;62.08;53.88;;;16.30;90.50;;;;;;5080358;28;20037;-75
2021/07/13 03:20:25;;;;;;;61.35;53.33;;;16.30;90.50;;;;;;5073629;28;20043;-75
2021/07/13 03:22:53;;;;;;;62.85;54.35;;;16.30;90.50;;;;;;5076874;28;20118;-79
2021/07/13 03:25:26;;;;;;;65.70;55.95;;;16.30;90.60;;;;;;5070216;28;20593;-75
2021/07/13 03:27:54;;;;;;;63.60;54.67;;;16.30;90.60;;;;;;5070619;28;20081;-76
2021/07/13 03:30:22;;;;;;;68.13;56.42;;;16.30;90.70;;;;;;5080621;28;20479;-75
2021/07/13 03:32:52;;;;;;;63.50;53.97;;;16.30;90.70;;;;;;5076019;28;20152;-75
2021/07/13 03:35:19;;;;;;;63.65;52.90;;;16.30;90.70;;;;;;5083112;28;20036;-75
2021/07/13 03:37:48;;;;;;;66.13;54.15;;;16.30;90.70;;;;;;5076867;28;20032;-74
2021/07/13 03:40:15;;;;;;;59.55;52.85;;;16.30;90.60;;;;;;5078777;28;20032;-75
2021/07/13 03:42:42;;;;;;;55.72;49.08;;;16.30;90.40;;;;;;5082211;28;20486;-76
2021/07/13 03:45:10;;;;;;;60.03;50.25;;;16.30;90.40;;;;;;5080336;28;20125;-76
2021/07/13 03:47:36;;;;;;;60.85;52.72;;;16.40;90.40;;;;;;5078581;28;20024;-75
2021/07/13 03:50:04;;;;;;;55.85;49.40;;;16.40;90.40;;;;;;5079462;28;20029;-75
2021/07/13 03:52:30;;;;;;;58.15;50.42;;;16.50;90.30;;;;;;5077334;28;20368;-76
2021/07/13 03:54:55;;;;;;;64.95;53.75;;;16.50;90.20;;;;;;5077561;28;20505;-74
2021/07/13 03:57:21;;;;;;;63.53;55.08;;;16.50;90.30;;;;;;5088389;28;20051;-75
2021/07/13 03:59:47;;;;;;;73.05;58.38;;;16.60;90.30;;;;;;5083531;28;20542;-75
2021/07/13 04:02:13;;;;;;;73.47;60.08;;;16.60;90.60;;;;;;5077270;28;20094;-75
2021/07/13 04:04:38;;;;;;;83.95;65.32;;;16.60;90.80;;;;;;5075192;28;20035;-76
2021/07/13 04:07:06;;;;;;;82.93;64.97;;;16.70;91.40;;;;;;5088691;28;20059;-77
2021/07/13 04:09:32;;;;;;;81.32;63.60;;;16.80;91.50;;;;;;5091203;28;20042;-75
2021/07/13 04:11:58;;;;;;;86.18;64.85;;;16.80;91.40;;;;;;5081898;28;20127;-74
2021/07/13 04:14:23;;;;;;;94.47;66.88;;;16.80;91.40;;;;;;5072177;28;21430;-76
2021/07/13 04:16:49;;;;;;;102.25;67.18;;;16.90;91.60;;;;;;5074615;28;20120;-76
2021/07/13 04:19:15;;;;;;;113.90;73.15;;;16.90;91.90;;;;;;5077499;28;20368;-74
2021/07/13 04:21:40;;;;;;;115.72;72.78;;;16.90;92.10;;;;;;5075119;28;20036;-75
2021/07/13 04:24:06;;;;;;;112.72;73.97;;;16.90;92.20;;;;;;5078496;28;20059;-77
2021/07/13 04:26:32;;;;;;;105.78;68.43;;;17.00;92.20;;;;;;5087968;28;20085;-75
2021/07/13 04:28:57;;;;;;;109.25;72.00;;;17.00;92.20;;;;;;5089386;28;20492;-75
2021/07/13 04:31:23;;;;;;;103.88;66.75;;;17.00;92.20;;;;;;5079075;28;20036;-74
2021/07/13 04:33:49;;;;;;;105.53;69.20;;;17.10;92.20;;;;;;5070966;28;20028;-75
2021/07/13 04:36:14;;;;;;;106.35;68.70;;;17.10;92.20;;;;;;5068664;28;20052;-75
2021/07/13 04:38:41;;;;;;;112.13;69.60;;;17.10;92.20;;;;;;5069390;28;20079;-75
2021/07/13 04:41:07;;;;;;;111.35;70.65;;;17.20;92.10;;;;;;5068660;28;20035;-77
2021/07/13 04:43:33;;;;;;;112.55;72.85;;;17.20;92.10;;;;;;5072724;28;20490;-79
2021/07/13 04:45:58;;;;;;;106.00;69.18;;;17.20;92.00;;;;;;5082361;28;20028;-75
2021/07/13 04:48:24;;;;;;;109.97;69.13;;;17.30;92.00;;;;;;5069882;28;20167;-75
2021/07/13 04:50:50;;;;;;;113.75;69.75;;;17.30;92.00;;;;;;5083681;28;20040;-76
2021/07/13 04:53:15;;;;;;;119.47;74.13;;;17.30;92.00;;;;;;5074178;28;20470;-75
2021/07/13 04:55:41;;;;;;;107.28;69.28;;;17.30;92.00;;;;;;5077014;28;20480;-78
2021/07/13 04:58:07;;;;;;;118.43;72.05;;;17.30;92.10;;;;;;5068309;28;20048;-76
2021/07/13 05:00:33;;;;;;;110.88;69.72;;;17.40;92.00;;;;;;5074703;28;20119;-75
2021/07/13 05:02:58;;;;;;;112.25;70.65;;;17.40;92.10;;;;;;5074504;28;20052;-74
2021/07/13 05:05:24;;;;;;;121.35;71.68;;;17.40;92.10;;;;;;5077510;28;20420;-75
2021/07/13 05:07:50;;;;;;;113.18;69.35;;;17.50;92.10;;;;;;5085417;28;20035;-76
2021/07/13 05:10:16;;;;;;;127.78;75.10;;;17.40;92.00;;;;;;5078274;28;20585;-75
2021/07/13 05:12:43;;;;;;;124.22;68.65;;;17.50;92.10;;;;;;5077041;28;20056;-75
2021/07/13 05:15:12;;;;;;;125.40;71.43;;;17.50;92.10;;;;;;5068027;28;20111;-75
2021/07/13 05:17:38;;;;;;;127.43;72.45;;;17.40;92.30;;;;;;5076852;28;20486;-75
2021/07/13 05:20:09;;;;;;;124.95;71.00;;;17.50;92.40;;;;;;5069482;28;20071;-75
2021/07/13 05:22:35;;;;;;;133.32;71.03;;;17.50;92.40;;;;;;5073477;28;20037;-75
2021/07/13 05:25:03;;;;;;;134.57;71.13;;;17.50;92.50;;;;;;5075613;28;20040;-75
2021/07/13 05:27:32;;;;;;;123.82;71.25;;;17.50;92.60;;;;;;5072169;28;20033;-74
2021/07/13 05:29:58;;;;;;;133.88;70.30;;;17.60;92.60;;;;;;5069481;28;20032;-78
2021/07/13 05:32:24;;;;;;;150.90;72.03;;;17.60;92.60;;;;;;5075572;28;20032;-76
2021/07/13 05:34:49;;;;;;;145.55;71.55;;;17.60;92.60;;;;;;5085299;28;20429;-75
2021/07/13 05:37:15;;;;;;;133.93;67.65;;;17.60;92.70;;;;;;5067466;28;20113;-74
2021/07/13 05:39:41;;;;;;;124.13;65.93;;;17.60;92.70;;;;;;5069373;28;20078;-73
2021/07/13 05:42:09;;;;;;;127.93;66.47;;;17.60;92.70;;;;;;5068873;28;20032;-75
2021/07/13 05:44:35;;;;;;;121.50;66.03;;;17.70;92.80;;;;;;5072272;28;20479;-72
2021/07/13 05:47:01;;;;;;;127.05;69.10;;;17.80;92.80;;;;;;5070785;28;20078;-75
2021/07/13 05:49:27;;;;;;;125.95;68.75;;;17.80;92.60;;;;;;5069717;28;20441;-72
2021/07/13 05:51:52;;;;;;;112.63;64.05;;;17.80;92.50;;;;;;5068936;28;20477;-72
2021/07/13 05:54:18;;;;;;;122.10;66.95;;;17.80;92.50;;;;;;5079355;28;20040;-73
2021/07/13 05:56:44;;;;;;;120.20;66.63;;;17.80;92.50;;;;;;5087745;28;20483;-75
2021/07/13 05:59:09;;;;;;;129.70;69.05;;;17.80;92.50;;;;;;5077152;28;20086;-72
2021/07/13 06:01:35;;;;;;;124.65;66.93;;;17.80;92.60;;;;;;5067862;28;20032;-75
2021/07/13 06:04:01;;;;;;;119.20;65.65;;;17.80;92.60;;;;;;5072333;28;20036;-74
2021/07/13 06:06:29;;;;;;;137.60;68.60;;;17.90;92.70;;;;;;5075773;28;20475;-72
2021/07/13 06:08:55;;;;;;;139.55;68.72;;;17.80;92.70;;;;;;5069079;28;20082;-72
2021/07/13 06:11:20;;;;;;;134.10;67.72;;;17.80;92.70;;;;;;5068781;28;20053;-73
2021/07/13 06:13:46;;;;;;;136.95;68.47;;;17.90;92.80;;;;;;5067889;28;20476;-74
2021/07/13 06:16:12;;;;;;;135.45;68.25;;;17.80;92.70;;;;;;5070327;28;20036;-73
2021/07/13 06:18:38;;;;;;;142.40;69.60;;;17.80;92.90;;;;;;5085354;28;20057;-73
2021/07/13 06:21:05;;;;;;;132.57;69.57;;;17.80;92.90;;;;;;5078016;28;20474;-72
2021/07/13 06:23:31;;;;;;;132.75;69.72;;;17.80;93.00;;;;;;5069265;28;20044;-72
2021/07/13 06:25:57;;;;;;;136.70;69.43;;;17.90;93.00;;;;;;5084322;28;20047;-73
2021/07/13 06:28:22;;;;;;;132.95;69.32;;;18.00;93.00;;;;;;5078261;28;20028;-73
2021/07/13 06:30:48;;;;;;;134.65;70.35;;;18.10;92.90;;;;;;5085285;28;20032;-77
2021/07/13 06:33:14;;;;;;;132.95;69.32;;;18.20;92.80;;;;;;5068258;28;20506;-73
2021/07/13 06:35:44;;;;;;;122.30;66.75;;;18.30;92.50;;;;;;5069639;28;20046;-74
2021/07/13 06:38:09;;;;;;;139.52;69.07;;;18.30;92.40;;;;;;5075658;28;20040;-76
2021/07/13 06:40:35;;;;;;;125.40;64.43;;;18.30;92.30;;;;;;5082371;28;20132;-73
2021/07/13 06:43:00;;;;;;;134.07;66.00;;;18.20;92.40;;;;;;5070454;28;20501;-72
2021/07/13 06:45:26;;;;;;;130.63;63.28;;;18.20;92.50;;;;;;5071192;28;20041;-72
2021/07/13 06:47:54;;;;;;;135.40;66.40;;;18.20;92.50;;;;;;5078852;28;20085;-73
2021/07/13 06:50:25;;;;;;;125.72;63.10;;;18.20;92.50;;;;;;5075822;28;20044;-73
2021/07/13 06:52:52;;;;;;;132.23;63.08;;;18.20;92.70;;;;;;5071182;28;20033;-73
2021/07/13 06:55:17;;;;;;;131.75;64.50;;;18.30;92.70;;;;;;5084008;28;20043;-73
2021/07/13 06:57:43;;;;;;;127.95;62.78;;;18.30;92.70;;;;;;5076809;28;20045;-73
2021/07/13 07:00:10;;;;;;;125.80;62.65;;;18.50;92.50;;;;;;5069615;28;20058;-74
2021/07/13 07:02:35;;;;;;;118.00;62.70;;;18.60;92.10;;;;;;5086005;28;20482;-72
2021/07/13 07:05:01;;;;;;;123.78;61.78;;;19.00;91.90;;;;;;5079681;28;20036;-73
2021/07/13 07:07:27;;;;;;;117.03;62.30;;;19.40;91.40;;;;;;5079224;28;20032;-74
2021/07/13 07:09:53;;;;;;;94.10;55.50;;;20.00;90.60;;;;;;5072351;28;20079;-74
2021/07/13 07:12:18;;;;;;;85.30;53.97;;;20.40;87.70;;;;;;5079175;28;20040;-73
2021/07/13 07:14:44;;;;;;;75.90;50.75;;;20.60;86.00;;;;;;5077244;28;20044;-72
2021/07/13 07:17:10;;;;;;;79.05;51.05;;;21.00;84.80;;;;;;5088688;28;20104;-72
2021/07/13 07:19:35;;;;;;;77.70;50.03;;;20.80;83.50;;;;;;5077246;28;20100;-74
2021/07/13 07:22:02;;;;;;;75.75;49.85;;;20.80;84.30;;;;;;5070837;28;20037;-74
2021/07/13 07:24:27;;;;;;;74.63;53.05;;;20.80;84.60;;;;;;5075736;28;20051;-72
2021/07/13 07:26:53;;;;;;;77.45;52.15;;;20.60;84.50;;;;;;5076128;28;20041;-72
2021/07/13 07:29:19;;;;;;;79.80;54.33;;;20.40;85.10;;;;;;5071677;28;20032;-73
2021/07/13 07:31:44;;;;;;;82.53;54.85;;;20.30;85.30;;;;;;5071940;28;20039;-72
2021/07/13 07:34:10;;;;;;;77.10;54.15;;;20.40;85.30;;;;;;5087477;28;20387;-72
2021/07/13 07:36:35;;;;;;;73.20;53.10;;;20.40;84.80;;;;;;5071951;28;20132;-72
2021/07/13 07:39:02;;;;;;;72.03;51.35;;;20.30;85.10;;;;;;5070128;28;20479;-73
2021/07/13 07:41:27;;;;;;;71.15;51.78;;;20.40;85.10;;;;;;5071967;28;20391;-72
2021/07/13 07:43:53;;;;;;;75.90;52.13;;;20.50;84.70;;;;;;5071887;28;20063;-72
2021/07/13 07:46:19;;;;;;;70.18;51.67;;;20.40;84.80;;;;;;5078373;28;20037;-74
2021/07/13 07:48:45;;;;;;;71.28;52.08;;;20.30;84.80;;;;;;5085983;28;20037;-73
2021/07/13 07:51:10;;;;;;;72.43;54.60;;;20.20;85.10;;;;;;5071005;28;20090;-72
2021/07/13 07:53:36;;;;;;;67.55;51.92;;;20.30;85.00;;;;;;5072043;28;20032;-72
2021/07/13 07:56:02;;;;;;;66.18;50.60;;;20.30;84.60;;;;;;5075599;28;20040;-72
2021/07/13 07:58:27;;;;;;;65.25;52.05;;;20.30;84.20;;;;;;5070075;28;20033;-72
2021/07/13 08:00:54;;;;;;;66.38;53.03;;;20.40;84.40;;;;;;5071276;28;20044;-72
2021/07/13 08:03:20;;;;;;;65.78;53.08;;;20.50;84.00;;;;;;5086024;28;20032;-72
2021/07/13 08:05:46;;;;;;;66.47;52.75;;;20.60;83.60;;;;;;5071408;28;20032;-72
2021/07/13 08:08:11;;;;;;;66.95;51.10;;;20.60;83.40;;;;;;5069753;28;20115;-72
2021/07/13 08:10:37;;;;;;;63.13;51.05;;;20.60;83.50;;;;;;5071219;28;20055;-72
2021/07/13 08:13:04;;;;;;;64.68;50.80;;;20.80;82.90;;;;;;5069297;28;20029;-72
2021/07/13 08:15:30;;;;;;;64.97;50.65;;;20.90;82.00;;;;;;5077979;28;20425;-74
2021/07/13 08:17:56;;;;;;;70.30;51.92;;;20.90;82.30;;;;;;5075779;28;20047;-72
2021/07/13 08:20:22;;;;;;;63.67;51.65;;;20.90;82.40;;;;;;5070133;28;20036;-72
2021/07/13 08:22:49;;;;;;;58.30;48.45;;;21.00;82.50;;;;;;5072894;28;20059;-73
2021/07/13 08:25:17;;;;;;;56.28;47.20;;;21.20;81.00;;;;;;5084159;28;20035;-72
2021/07/13 08:27:43;;;;;;;56.22;47.30;;;21.40;79.70;;;;;;5070752;28;20062;-73
2021/07/13 08:30:09;;;;;;;55.40;46.95;;;21.60;78.20;;;;;;5079623;28;20083;-72
2021/07/13 08:32:35;;;;;;;57.65;47.13;;;22.00;77.90;;;;;;5079943;28;20028;-73
2021/07/13 08:35:01;;;;;;;55.17;47.90;;;21.90;77.40;;;;;;5069588;28;20074;-72
2021/07/13 08:37:29;;;;;;;53.60;47.40;;;22.10;77.00;;;;;;5069912;28;20059;-73
2021/07/13 08:39:55;;;;;;;54.17;46.70;;;22.30;76.70;;;;;;5069012;28;20033;-73
2021/07/13 08:42:21;;;;;;;51.10;45.50;;;22.40;75.60;;;;;;5088298;28;24941;-73
2021/07/13 08:44:47;;;;;;;53.75;47.92;;;22.20;76.30;;;;;;5077400;28;20102;-76
2021/07/13 08:47:16;;;;;;;55.28;48.22;;;22.50;75.70;;;;;;5080164;28;20067;-72
2021/07/13 08:49:43;;;;;;;52.17;46.15;;;22.60;74.60;;;;;;5080899;28;20437;-73
2021/07/13 08:52:09;;;;;;;51.65;44.78;;;22.60;74.60;;;;;;5071930;28;20024;-72
2021/07/13 08:54:35;;;;;;;50.67;45.03;;;22.80;75.00;;;;;;5073237;28;20032;-73
2021/07/13 08:57:01;;;;;;;50.65;43.63;;;22.90;73.80;;;;;;5068677;28;20048;-73
2021/07/13 08:59:27;;;;;;;49.47;42.95;;;22.90;73.40;;;;;;5076814;28;20032;-72
2021/07/13 09:01:54;;;;;;;48.78;43.47;;;22.80;73.60;;;;;;5081114;28;20071;-73
2021/07/13 09:04:20;;;;;;;49.83;44.47;;;22.70;74.10;;;;;;5069626;28;20535;-72
2021/07/13 09:06:57;;;;;;;53.20;47.20;;;22.70;74.30;;;;;;5068987;28;20024;-73
2021/07/13 09:09:25;;;;;;;55.95;49.90;;;22.60;75.20;;;;;;5069917;28;20446;-73
2021/07/13 09:12:21;;;;;;;55.17;48.42;;;22.40;74.70;;;;;;5072005;28;20037;-73
2021/07/13 09:14:55;;;;;;;60.22;50.40;;;22.50;75.30;;;;;;5085417;28;20054;-72
2021/07/13 09:17:37;;;;;;;55.17;48.22;;;22.60;75.30;;;;;;5074367;28;20441;-72
2021/07/13 09:20:11;;;;;;;56.58;49.22;;;22.90;74.30;;;;;;5070067;28;20035;-72
2021/07/13 09:22:52;;;;;;;53.20;45.67;;;23.30;72.70;;;;;;5082452;28;20111;-74
2021/07/13 09:25:42;;;;;;;52.15;45.55;;;23.50;70.30;;;;;;5086880;28;20060;-73
2021/07/13 09:28:12;;;;;;;53.70;46.30;;;23.60;70.90;;;;;;5077918;28;20028;-73
2021/07/13 09:30:44;;;;;;;52.92;45.38;;;23.60;70.80;;;;;;5069633;28;20036;-72
2021/07/13 09:33:24;;;;;;;52.53;46.03;;;23.10;71.30;;;;;;5070494;28;20032;-72
2021/07/13 09:36:00;;;;;;;53.55;44.88;;;22.80;72.80;;;;;;5083094;28;20043;-72
2021/07/13 09:38:28;;;;;;;52.00;45.25;;;22.80;72.90;;;;;;5079344;28;20040;-73
2021/07/13 09:41:07;;;;;;;53.67;43.15;;;22.90;72.00;;;;;;5080079;28;20110;-72
2021/07/13 09:43:46;;;;;;;49.25;41.83;;;23.00;73.60;;;;;;5069893;28;20040;-72
2021/07/13 09:46:21;;;;;;;50.97;42.92;;;22.60;75.30;;;;;;5066952;28;20395;-76
2021/07/13 09:49:07;;;;;;;48.90;40.88;;;22.40;75.60;;;;;;5082369;28;20036;-73
2021/07/13 09:51:33;;;;;;;48.55;41.53;;;22.40;76.00;;;;;;5062500;28;20371;-74
2021/07/13 09:53:59;;;;;;;48.92;39.45;;;22.70;75.50;;;;;;5074779;28;20039;-73
2021/07/13 09:56:46;;;;;;;44.08;37.88;;;22.90;74.50;;;;;;5078328;28;20049;-72
2021/07/13 09:59:12;;;;;;;47.45;39.30;;;23.00;74.60;;;;;;5069154;28;20029;-77
2021/07/13 10:01:38;;;;;;;47.90;38.95;;;23.10;74.00;;;;;;5071069;28;20382;-73
2021/07/13 10:04:04;;;;;;;46.90;38.95;;;23.10;75.00;;;;;;5084547;28;20482;-72
2021/07/13 10:06:33;;;;;;;47.67;38.83;;;23.00;75.10;;;;;;5087848;28;20036;-73
2021/07/13 10:09:00;;;;;;;44.50;37.83;;;22.90;75.20;;;;;;5081604;28;20475;-72
2021/07/13 10:11:28;;;;;;;49.25;40.38;;;23.00;75.20;;;;;;5077211;28;20030;-73
2021/07/13 10:13:57;;;;;;;47.85;38.42;;;23.00;75.50;;;;;;5070403;28;20036;-73
2021/07/13 10:16:24;;;;;;;50.55;40.17;;;22.40;76.50;;;;;;5075488;28;20045;-71
2021/07/13 10:18:50;;;;;;;51.10;41.08;;;22.00;78.20;;;;;;5073220;28;20435;-71
2021/07/13 10:21:16;;;;;;;53.08;40.15;;;21.70;79.70;;;;;;5074547;28;20127;-72
2021/07/13 10:23:44;;;;;;;52.05;40.35;;;21.60;80.40;;;;;;5079009;28;20045;-73
2021/07/13 10:26:13;;;;;;;53.00;42.55;;;21.80;79.40;;;;;;5088370;28;20044;-72
2021/07/13 10:28:39;;;;;;;47.90;38.95;;;21.90;79.70;;;;;;5072011;28;20117;-73
2021/07/13 10:31:05;;;;;;;47.78;38.50;;;22.10;78.80;;;;;;5078643;28;20471;-73
2021/07/13 10:33:35;;;;;;;45.10;37.08;;;22.10;78.90;;;;;;5078227;28;20150;-72
2021/07/13 10:36:28;;;;;;;46.65;37.45;;;22.20;77.70;;;;;;5081019;28;20033;-74
2021/07/13 10:39:25;;;;;;;40.70;34.30;;;22.40;78.10;;;;;;5081311;28;20228;-73
2021/07/13 10:41:51;;;;;;;43.65;35.17;;;22.60;76.70;;;;;;5080243;28;20498;-73
2021/07/13 10:44:40;;;;;;;42.35;35.10;;;22.80;75.70;;;;;;5070288;28;20040;-72
2021/07/13 10:47:22;;;;;;;45.45;36.33;;;22.80;76.30;;;;;;5072430;28;20032;-76
2021/07/13 10:50:07;;;;;;;44.78;38.10;;;22.80;75.80;;;;;;5080311;28;20506;-72
2021/07/13 10:52:52;;;;;;;42.13;34.05;;;23.00;74.60;;;;;;5079266;28;20118;-72
2021/07/13 10:55:30;;;;;;;45.67;35.75;;;22.90;74.10;;;;;;5080528;28;20048;-72
2021/07/13 11:00:58;;;;;;;50.92;37.95;;;22.30;76.50;;;;;;5073148;28;20032;-73
2021/07/13 11:03:32;;;;;;;51.50;37.47;;;22.10;78.20;;;;;;5079577;28;20040;-73
2021/07/13 11:06:08;;;;;;;48.17;36.90;;;21.80;78.10;;;;;;5078969;28;20040;-73
2021/07/13 11:08:40;;;;;;;50.00;37.78;;;21.60;79.10;;;;;;5071794;28;20585;-74
2021/07/13 11:11:14;;;;;;;47.90;36.42;;;21.30;80.00;;;;;;5071690;28;20467;-73
2021/07/13 11:13:45;;;;;;;45.58;36.97;;;21.30;80.30;;;;;;5071751;28;20475;-71
2021/07/13 11:16:11;;;;;;;48.08;37.58;;;21.30;79.70;;;;;;5070222;28;20033;-73
2021/07/13 11:18:38;;;;;;;45.88;36.35;;;21.10;80.20;;;;;;5071984;28;20036;-73
2021/07/13 11:21:27;;;;;;;47.97;36.95;;;21.10;80.50;;;;;;5072305;28;20074;-74
2021/07/13 11:23:58;;;;;;;47.17;36.80;;;20.90;80.90;;;;;;5074211;28;20032;-73
2021/07/13 11:26:26;;;;;;;51.30;38.45;;;20.80;81.20;;;;;;5076184;28;20056;-73
2021/07/13 11:28:57;;;;;;;53.67;39.13;;;20.70;81.20;;;;;;5071863;28;20036;-77
2021/07/13 11:31:31;;;;;;;50.00;39.20;;;20.60;82.10;;;;;;5069986;28;20029;-74
2021/07/13 11:34:11;;;;;;;46.30;35.90;;;20.50;82.00;;;;;;5072960;28;20655;-75
2021/07/13 11:36:40;;;;;;;43.85;36.72;;;20.30;82.20;;;;;;5077562;28;20078;-74
2021/07/13 11:39:34;;;;;;;43.45;35.35;;;20.40;82.10;;;;;;5080089;28;20050;-74
2021/07/13 11:42:05;;;;;;;42.58;34.88;;;20.40;81.50;;;;;;5072644;28;20032;-71
2021/07/13 11:44:30;;;;;;;38.42;32.85;;;20.40;81.70;;;;;;5079586;28;20112;-73
2021/07/13 11:46:56;;;;;;;39.90;33.25;;;20.30;81.40;;;;;;5080546;28;20143;-74
2021/07/13 11:49:27;;;;;;;40.97;33.13;;;20.40;81.50;;;;;;5070738;28;20067;-73
2021/07/13 11:51:57;;;;;;;44.88;32.75;;;20.50;81.20;;;;;;5083415;28;20027;-73
2021/07/13 11:54:28;;;;;;;35.13;29.98;;;20.50;81.10;;;;;;5083768;28;20051;-73
2021/07/13 11:56:56;;;;;;;33.13;29.35;;;20.30;81.00;;;;;;5085414;28;20086;-75
2021/07/13 11:59:24;;;;;;;34.75;28.83;;;20.40;81.20;;;;;;5068912;28;20588;-73
2021/07/13 12:01:55;;;;;;;34.47;27.38;;;20.30;80.90;;;;;;5085171;28;20040;-73
2021/07/13 12:04:22;;;;;;;32.97;26.13;;;20.40;80.60;;;;;;5081611;28;20046;-73
2021/07/13 12:07:02;;;;;;;28.88;23.17;;;20.60;79.90;;;;;;5069750;28;20043;-73
2021/07/13 12:09:38;;;;;;;25.08;22.02;;;20.60;79.10;;;;;;5070752;28;20028;-73
2021/07/13 12:12:09;;;;;;;25.73;21.45;;;20.60;78.80;;;;;;5073359;28;20453;-73
2021/07/13 12:14:36;;;;;;;26.40;21.15;;;20.60;77.70;;;;;;5091141;28;20040;-73
2021/07/13 12:17:02;;;;;;;25.52;20.13;;;20.60;77.90;;;;;;5085256;28;20044;-73
2021/07/13 12:19:30;;;;;;;22.38;19.92;;;20.70;77.40;;;;;;5077624;28;20086;-73
2021/07/13 12:22:04;;;;;;;25.17;18.42;;;20.80;77.00;;;;;;5088179;28;20040;-74
2021/07/13 12:24:39;;;;;;;24.52;17.65;;;20.80;76.50;;;;;;5075993;28;20040;-73
2021/07/13 12:27:11;;;;;;;22.27;17.25;;;20.90;76.50;;;;;;5089804;28;20093;-73
2021/07/13 12:29:44;;;;;;;20.33;14.93;;;21.00;76.10;;;;;;5074491;28;20115;-73
2021/07/13 12:32:27;;;;;;;22.25;16.63;;;20.90;75.40;;;;;;5084488;28;20470;-72
2021/07/13 12:34:54;;;;;;;19.73;14.38;;;20.80;76.00;;;;;;5079333;28;20552;-73
2021/07/13 12:37:27;;;;;;;20.73;14.68;;;20.90;75.20;;;;;;5076673;28;20118;-73